createdAt,value
2018-08-23T00:04:50.602Z,100064.07
2018-08-23T00:09:54.085Z,100064.23
2018-08-23T00:14:57.607Z,100054.74
2018-08-23T00:20:01.416Z,100053.66
2018-08-23T00:25:05.157Z,100051.31
2018-08-23T00:30:11.410Z,100050.20
2018-08-23T00:35:20.041Z,100048.64
2018-08-23T00:40:23.489Z,100040.09
2018-08-23T00:45:27.000Z,100034.95
2018-08-23T00:51:04.074Z,100033.22
2018-08-23T00:56:16.433Z,100033.22
2018-08-23T01:01:19.926Z,100029.52
2018-08-23T01:06:25.597Z,100024.71
2018-08-23T01:11:29.087Z,100018.30
2018-08-23T01:16:32.624Z,100012.72
2018-08-23T01:21:55.673Z,100008.98
2018-08-23T01:26:59.157Z,100007.56
2018-08-23T01:32:14.306Z,100006.17
2018-08-23T01:37:33.415Z,100003.36
2018-08-23T01:42:38.156Z,99997.78
2018-08-23T01:47:46.881Z,99997.45
2018-08-23T01:52:52.817Z,99988.91
2018-08-23T01:57:56.444Z,99993.21
2018-08-23T02:03:01.338Z,99985.75
2018-08-23T02:08:04.847Z,99982.96
2018-08-23T02:13:14.634Z,99973.45
2018-08-23T02:18:18.076Z,99975.35
2018-08-23T02:23:21.638Z,99968.66
2018-08-23T02:28:25.346Z,99964.64
2018-08-23T02:33:28.853Z,99972.84
2018-08-23T02:38:32.517Z,99973.94
2018-08-23T02:43:36.065Z,99970.53
2018-08-23T02:48:39.524Z,99972.66
2018-08-23T02:53:44.355Z,99966.62
2018-08-23T02:59:04.435Z,99963.18
2018-08-23T03:04:12.503Z,99955.45
2018-08-23T03:09:16.170Z,99962.56
2018-08-23T03:14:21.034Z,99963.48
2018-08-23T03:19:24.502Z,99967.06
2018-08-23T03:24:28.278Z,99966.28
2018-08-23T03:29:31.741Z,99959.25
2018-08-23T03:34:35.249Z,99961.48
2018-08-23T03:39:39.011Z,99958.97
2018-08-23T03:44:42.577Z,99959.42
2018-08-23T03:49:47.207Z,99967.49
2018-08-23T03:54:59.595Z,99964.06
2018-08-23T04:00:03.531Z,99965.59
2018-08-23T04:05:14.283Z,99963.57
2018-08-23T04:10:17.914Z,99955.93
2018-08-23T04:15:24.770Z,99955.59
2018-08-23T04:20:28.343Z,99950.28
2018-08-23T04:25:32.044Z,99947.48
2018-08-23T04:30:35.657Z,99947.97
2018-08-23T04:35:39.127Z,99947.44
2018-08-23T04:40:54.058Z,99942.83
2018-08-23T04:45:58.113Z,99944.39
2018-08-23T04:51:01.713Z,99945.31
2018-08-23T04:56:05.609Z,99945.13
2018-08-23T05:01:09.210Z,99945.13
2018-08-23T05:06:12.675Z,99944.84
2018-08-23T05:11:16.505Z,99944.48
2018-08-23T05:16:19.950Z,99939.11
2018-08-23T05:21:23.363Z,99932.97
2018-08-23T05:26:26.877Z,99935.61
2018-08-23T05:31:31.552Z,99932.64
2018-08-23T05:36:35.142Z,99930.02
2018-08-23T05:41:38.666Z,99934.05
2018-08-23T05:46:49.197Z,99920.72
2018-08-23T05:51:55.803Z,99927.41
2018-08-23T05:56:59.489Z,99917.48
2018-08-23T06:02:02.967Z,99919.23
2018-08-23T06:07:06.601Z,99921.12
2018-08-23T06:12:10.034Z,99912.62
2018-08-23T06:17:13.527Z,99910.16
2018-08-23T06:22:16.961Z,99909.44
2018-08-23T06:27:20.434Z,99907.28
2018-08-23T06:32:23.882Z,99902.54
2018-08-23T06:37:27.481Z,99907.40
2018-08-23T06:42:44.859Z,99908.67
2018-08-23T06:47:52.682Z,99898.50
2018-08-23T06:52:56.139Z,99900.02
2018-08-23T06:57:59.627Z,99897.36
2018-08-23T07:03:05.358Z,99897.80
2018-08-23T07:08:09.001Z,99890.06
2018-08-23T07:13:12.700Z,99885.45
2018-08-23T07:18:20.718Z,99882.78
2018-08-23T07:23:30.061Z,99875.55
2018-08-23T07:28:35.061Z,99872.03
2018-08-23T07:33:38.496Z,99888.30
2018-08-23T07:38:41.964Z,99888.30
2018-08-23T07:43:45.805Z,99881.31
2018-08-23T07:48:49.285Z,99886.61
2018-08-23T07:53:52.898Z,99885.22
2018-08-23T07:58:57.850Z,99881.97
2018-08-23T08:04:01.389Z,99880.89
2018-08-23T08:09:09.317Z,99882.29
2018-08-23T08:14:18.174Z,99869.24
2018-08-23T08:19:21.698Z,99870.02
2018-08-23T08:24:25.167Z,99872.20
2018-08-23T08:29:33.909Z,99873.76
2018-08-23T08:34:39.978Z,99867.55
2018-08-23T08:39:43.513Z,99865.54
2018-08-23T08:44:47.100Z,99865.87
2018-08-23T08:49:50.831Z,99862.59
2018-08-23T08:54:54.562Z,99856.55
2018-08-23T08:59:58.114Z,99846.77
2018-08-23T09:05:01.725Z,99835.92
2018-08-23T09:10:06.024Z,99838.27
2018-08-23T09:15:09.526Z,99819.33
2018-08-23T09:20:18.628Z,99812.67
2018-08-23T09:25:33.790Z,99811.41
2018-08-23T09:30:37.308Z,99814.52
2018-08-23T09:35:41.469Z,99810.17
2018-08-23T09:40:44.989Z,99794.05
2018-08-23T09:45:48.473Z,99793.89
2018-08-23T09:50:52.156Z,99787.70
2018-08-23T09:55:56.693Z,99779.61
2018-08-23T10:01:05.458Z,99774.51
2018-08-23T10:06:14.193Z,99765.17
2018-08-23T10:11:23.187Z,99759.61
2018-08-23T10:16:31.956Z,99745.30
2018-08-23T10:21:40.909Z,99740.22
2018-08-23T10:26:45.114Z,99740.21
2018-08-23T10:31:48.584Z,99732.60
2018-08-23T10:36:52.267Z,99732.45
2018-08-23T10:41:55.722Z,99729.36
2018-08-23T10:46:59.178Z,99718.31
2018-08-23T10:52:02.670Z,99716.45
2018-08-23T10:57:08.823Z,99709.16
2018-08-23T11:02:12.302Z,99708.20
2018-08-23T11:07:15.805Z,99699.20
2018-08-23T11:12:24.561Z,99687.70
2018-08-23T11:17:33.513Z,99686.47
2018-08-23T11:22:37.858Z,99672.31
2018-08-23T11:27:41.322Z,99668.43
2018-08-23T11:32:45.214Z,99669.98
2018-08-23T11:37:49.306Z,99658.19
2018-08-23T11:42:52.997Z,99659.40
2018-08-23T11:47:57.067Z,99644.64
2018-08-23T11:53:00.683Z,99648.53
2018-08-23T11:58:04.174Z,99642.00
2018-08-23T12:03:07.790Z,99638.44
2018-08-23T12:08:11.338Z,99638.74
2018-08-23T12:13:15.139Z,99623.48
2018-08-23T12:18:18.878Z,99617.43
2018-08-23T12:23:22.570Z,99605.78
2018-08-23T12:28:31.509Z,99598.95
2018-08-23T12:33:35.266Z,99599.25
2018-08-23T12:38:44.276Z,99597.86
2018-08-23T12:43:49.136Z,99582.75
2018-08-23T12:48:58.089Z,99585.55
2018-08-23T12:54:01.889Z,99578.24
2018-08-23T12:59:05.639Z,99566.44
2018-08-23T13:04:09.338Z,99567.98
2018-08-23T13:09:12.706Z,99565.34
2018-08-23T13:14:16.256Z,99565.34
2018-08-23T13:19:19.741Z,99570.62
2018-08-23T13:24:23.475Z,99558.52
2018-08-23T13:29:27.527Z,99554.94
2018-08-23T13:34:31.029Z,99547.02
2018-08-23T13:39:34.538Z,99541.42
2018-08-23T13:44:38.078Z,99538.31
2018-08-23T13:49:41.995Z,99535.83
2018-08-23T13:54:46.850Z,99576.03
2018-08-23T13:59:50.297Z,99529.88
2018-08-23T14:04:53.950Z,99513.25
2018-08-23T14:09:57.472Z,99521.77
2018-08-23T14:15:01.179Z,99516.35
2018-08-23T14:20:05.039Z,99522.25
2018-08-23T14:25:08.637Z,99522.70
2018-08-23T14:30:12.477Z,99511.95
2018-08-23T14:35:16.973Z,99506.50
2018-08-23T14:40:20.447Z,99512.87
2018-08-23T14:45:31.764Z,99534.01
2018-08-23T14:50:36.274Z,99598.97
2018-08-23T14:55:45.090Z,99609.42
2018-08-23T15:00:48.842Z,99635.97
2018-08-23T15:05:52.956Z,99645.59
2018-08-23T15:10:56.498Z,99671.68
2018-08-23T15:16:00.643Z,99696.55
2018-08-23T15:21:04.129Z,99718.93
2018-08-23T15:26:07.680Z,99750.02
2018-08-23T15:31:11.357Z,99757.63
2018-08-23T15:36:15.034Z,99785.15
2018-08-23T15:41:18.898Z,99824.78
2018-08-23T15:46:24.107Z,99811.11
2018-08-23T15:51:27.677Z,99816.06
2018-08-23T15:56:31.272Z,99805.98
2018-08-23T16:01:35.282Z,99796.03
2018-08-23T16:06:38.740Z,99775.83
2018-08-23T16:11:42.342Z,99757.30
2018-08-23T16:18:57.222Z,99742.87
2018-08-23T16:24:00.743Z,99719.39
2018-08-23T16:29:04.598Z,99701.21
2018-08-23T16:34:08.252Z,99678.20
2018-08-23T16:39:11.880Z,99658.63
2018-08-23T16:44:15.398Z,99640.13
2018-08-23T16:49:19.333Z,99632.78
2018-08-23T16:54:23.221Z,99612.41
2018-08-23T16:59:26.998Z,99600.60
2018-08-23T17:04:35.889Z,99593.91
2018-08-23T17:09:39.556Z,99599.63
2018-08-23T17:14:43.285Z,99592.64
2018-08-23T17:19:47.124Z,99594.48
2018-08-23T17:24:50.833Z,99579.80
2018-08-23T17:29:54.750Z,99581.97
2018-08-23T17:34:58.850Z,99585.55
2018-08-23T17:40:02.794Z,99590.86
2018-08-23T17:45:06.596Z,99575.83
2018-08-23T17:50:10.557Z,99572.42
2018-08-23T17:55:14.071Z,99564.65
2018-08-23T18:00:17.787Z,99561.17
2018-08-23T18:05:21.334Z,99568.22
2018-08-23T18:10:24.790Z,99574.87
2018-08-23T18:15:33.641Z,99588.47
2018-08-23T18:20:37.143Z,99589.13
2018-08-23T18:25:40.841Z,99595.00
2018-08-23T18:30:44.254Z,99590.52
2018-08-23T18:35:48.095Z,99592.84
2018-08-23T18:40:53.095Z,99596.89
2018-08-23T18:45:56.711Z,99601.86
2018-08-23T18:51:00.698Z,99590.86
2018-08-23T18:56:04.576Z,99591.17
2018-08-23T19:01:08.261Z,99599.38
2018-08-23T19:06:11.790Z,99597.98
2018-08-23T19:11:16.596Z,99589.30
2018-08-23T19:16:25.358Z,99596.27
2018-08-23T19:21:29.249Z,99588.63
2018-08-23T19:26:32.705Z,99593.59
2018-08-23T19:31:36.195Z,99586.17
2018-08-23T19:36:40.018Z,99588.34
2018-08-23T19:41:44.348Z,99582.76
2018-08-23T19:46:53.002Z,99585.70
2018-08-23T19:51:56.794Z,99596.27
2018-08-23T19:57:01.046Z,99586.33
2018-08-23T20:02:04.940Z,99586.05
2018-08-23T20:07:08.607Z,99582.19
2018-08-23T20:12:12.614Z,99586.82
2018-08-23T20:17:16.368Z,99582.91
2018-08-23T20:22:19.901Z,99578.56
2018-08-23T20:27:23.693Z,99570.95
2018-08-23T20:32:27.535Z,99570.80
2018-08-23T20:37:31.181Z,99571.58
2018-08-23T20:42:35.134Z,99570.18
2018-08-23T20:47:38.776Z,99575.15
2018-08-23T20:52:42.490Z,99569.09
2018-08-23T20:57:46.186Z,99567.27
2018-08-23T21:02:49.864Z,99562.11
2018-08-23T21:07:53.671Z,99566.30
2018-08-23T21:12:57.578Z,99570.80
2018-08-23T21:18:01.217Z,99567.54
2018-08-23T21:23:05.137Z,99553.41
2018-08-23T21:28:08.848Z,99552.02
2018-08-23T21:33:12.363Z,99551.08
2018-08-23T21:38:16.504Z,99554.19
2018-08-23T21:43:20.363Z,99552.63
2018-08-23T21:48:23.936Z,99566.77
2018-08-23T21:53:27.550Z,99559.78
2018-08-23T21:58:31.043Z,99562.41
2018-08-23T22:03:35.002Z,99558.22
2018-08-23T22:08:38.414Z,99555.43
2018-08-23T22:13:41.915Z,99552.33
2018-08-23T22:18:45.378Z,99544.41
2018-08-23T22:23:49.208Z,99546.42
2018-08-23T22:28:52.727Z,99535.86
2018-08-23T22:33:56.390Z,99519.09
2018-08-23T22:39:00.232Z,99513.23
2018-08-23T22:44:04.107Z,99504.69
2018-08-23T22:49:08.472Z,99489.32
2018-08-23T22:54:12.514Z,99497.23
2018-08-23T22:59:16.492Z,99499.41
2018-08-23T23:04:25.165Z,99492.89
2018-08-23T23:09:28.616Z,99496.62
2018-08-23T23:14:32.210Z,99497.86
2018-08-23T23:19:35.810Z,99490.44
2018-08-23T23:24:44.940Z,99492.92
2018-08-23T23:29:48.424Z,99497.42
2018-08-23T23:34:52.069Z,99493.70
2018-08-23T23:39:55.818Z,99489.51
2018-08-23T23:44:59.821Z,99478.95
2018-08-23T23:50:03.749Z,99479.58
2018-08-23T23:55:07.339Z,99477.99
